sensor_id;sensor_type;location;lat;lon;timestamp;pressure;altitude;pressure_sealevel;temperature;humidity
72585;BME280;60618;40.084;32.908;2023-05-23T00:01:30;88922.28;;;14.18;84.24
72585;BME280;60618;40.084;32.908;2023-05-23T00:03:57;88929.53;;;14.23;84.14
72585;BME280;60618;40.084;32.908;2023-05-23T00:06:24;88940.59;;;14.14;83.85
72585;BME280;60618;40.084;32.908;2023-05-23T00:08:51;88937.91;;;14.14;84.07
72585;BME280;60618;40.084;32.908;2023-05-23T00:11:18;88930.31;;;14.18;83.81
72585;BME280;60618;40.084;32.908;2023-05-23T00:13:45;88927.63;;;14.18;83.50
72585;BME280;60618;40.084;32.908;2023-05-23T00:16:12;88936.19;;;14.16;84.02
72585;BME280;60618;40.084;32.908;2023-05-23T00:18:40;88925.47;;;14.16;83.83
72585;BME280;60618;40.084;32.908;2023-05-23T00:21:07;88925.59;;;14.24;83.89
72585;BME280;60618;40.084;32.908;2023-05-23T00:23:34;88918.28;;;14.25;83.57
72585;BME280;60618;40.084;32.908;2023-05-23T00:26:01;88919.22;;;14.27;83.16
72585;BME280;60618;40.084;32.908;2023-05-23T00:28:28;88910.94;;;14.12;82.37
72585;BME280;60618;40.084;32.908;2023-05-23T00:30:55;88911.06;;;14.01;82.08
72585;BME280;60618;40.084;32.908;2023-05-23T00:33:22;88919.44;;;13.91;82.66
72585;BME280;60618;40.084;32.908;2023-05-23T00:35:49;88917.38;;;13.84;83.57
72585;BME280;60618;40.084;32.908;2023-05-23T00:38:16;88928.63;;;13.58;84.65
72585;BME280;60618;40.084;32.908;2023-05-23T00:40:43;88924.84;;;13.48;85.67
72585;BME280;60618;40.084;32.908;2023-05-23T00:43:10;88927.50;;;12.94;88.69
72585;BME280;60618;40.084;32.908;2023-05-23T00:45:37;88934.69;;;12.80;92.04
72585;BME280;60618;40.084;32.908;2023-05-23T00:48:05;88925.84;;;12.91;92.42
72585;BME280;60618;40.084;32.908;2023-05-23T00:50:33;88930.34;;;12.77;93.50
72585;BME280;60618;40.084;32.908;2023-05-23T00:53:01;88937.66;;;12.71;94.35
72585;BME280;60618;40.084;32.908;2023-05-23T00:55:28;88937.13;;;12.78;94.80
72585;BME280;60618;40.084;32.908;2023-05-23T00:57:56;88938.28;;;12.83;94.98
72585;BME280;60618;40.084;32.908;2023-05-23T01:00:24;88927.28;;;12.92;93.78
72585;BME280;60618;40.084;32.908;2023-05-23T01:02:52;88926.63;;;13.10;93.04
72585;BME280;60618;40.084;32.908;2023-05-23T01:05:20;88924.84;;;13.24;91.68
72585;BME280;60618;40.084;32.908;2023-05-23T01:07:48;88909.22;;;13.28;90.92
72585;BME280;60618;40.084;32.908;2023-05-23T01:10:17;88911.63;;;13.01;91.68
72585;BME280;60618;40.084;32.908;2023-05-23T01:13:01;88911.72;;;12.96;92.38
72585;BME280;60618;40.084;32.908;2023-05-23T01:16:17;88912.22;;;12.94;92.51
72585;BME280;60618;40.084;32.908;2023-05-23T01:18:39;88906.88;;;12.94;91.58
72585;BME280;60618;40.084;32.908;2023-05-23T01:21:11;88915.28;;;13.04;90.52
72585;BME280;60618;40.084;32.908;2023-05-23T01:27:00;88914.94;;;13.13;89.88
72585;BME280;60618;40.084;32.908;2023-05-23T01:29:31;88913.09;;;13.02;89.67
72585;BME280;60618;40.084;32.908;2023-05-23T01:32:01;88914.41;;;13.20;88.66
72585;BME280;60618;40.084;32.908;2023-05-23T01:34:32;88910.75;;;13.23;88.12
72585;BME280;60618;40.084;32.908;2023-05-23T01:37:00;88917.88;;;13.40;87.13
72585;BME280;60618;40.084;32.908;2023-05-23T01:39:27;88911.50;;;13.43;87.10
72585;BME280;60618;40.084;32.908;2023-05-23T01:41:54;88916.84;;;13.43;87.10
72585;BME280;60618;40.084;32.908;2023-05-23T01:44:21;88921.19;;;13.46;86.22
72585;BME280;60618;40.084;32.908;2023-05-23T01:46:48;88916.56;;;13.46;85.94
72585;BME280;60618;40.084;32.908;2023-05-23T01:49:17;88918.53;;;13.46;86.50
72585;BME280;60618;40.084;32.908;2023-05-23T01:51:44;88926.19;;;13.55;85.78
72585;BME280;60618;40.084;32.908;2023-05-23T01:54:13;88922.38;;;13.50;85.78
72585;BME280;60618;40.084;32.908;2023-05-23T01:56:41;88913.63;;;13.50;85.67
72585;BME280;60618;40.084;32.908;2023-05-23T01:59:09;88921.19;;;13.46;86.04
72585;BME280;60618;40.084;32.908;2023-05-23T02:01:36;88913.69;;;13.44;86.10
72585;BME280;60618;40.084;32.908;2023-05-23T02:04:04;88916.31;;;13.50;85.77
72585;BME280;60618;40.084;32.908;2023-05-23T02:06:31;88910.00;;;13.47;85.92
72585;BME280;60618;40.084;32.908;2023-05-23T02:08:57;88912.09;;;13.54;85.97
72585;BME280;60618;40.084;32.908;2023-05-23T02:11:24;88924.53;;;13.52;86.05
72585;BME280;60618;40.084;32.908;2023-05-23T02:13:51;88921.88;;;13.52;86.18
72585;BME280;60618;40.084;32.908;2023-05-23T02:16:18;88918.78;;;13.18;87.28
72585;BME280;60618;40.084;32.908;2023-05-23T02:18:45;88918.16;;;13.06;88.67
72585;BME280;60618;40.084;32.908;2023-05-23T02:21:12;88915.44;;;13.12;88.31
72585;BME280;60618;40.084;32.908;2023-05-23T02:23:39;88917.84;;;13.15;88.85
72585;BME280;60618;40.084;32.908;2023-05-23T02:26:06;88916.47;;;13.33;87.75
72585;BME280;60618;40.084;32.908;2023-05-23T02:28:33;88910.84;;;13.37;87.78
72585;BME280;60618;40.084;32.908;2023-05-23T02:31:01;88912.22;;;13.43;87.07
72585;BME280;60618;40.084;32.908;2023-05-23T02:33:28;88916.72;;;13.54;86.30
72585;BME280;60618;40.084;32.908;2023-05-23T02:35:55;88921.09;;;13.57;86.80
72585;BME280;60618;40.084;32.908;2023-05-23T02:38:22;88912.78;;;13.60;86.58
72585;BME280;60618;40.084;32.908;2023-05-23T02:40:49;88911.38;;;13.54;86.59
72585;BME280;60618;40.084;32.908;2023-05-23T02:43:16;88912.66;;;13.47;86.82
72585;BME280;60618;40.084;32.908;2023-05-23T02:45:43;88905.88;;;13.46;86.74
72585;BME280;60618;40.084;32.908;2023-05-23T02:48:10;88898.81;;;13.49;86.69
72585;BME280;60618;40.084;32.908;2023-05-23T02:50:37;88899.75;;;13.27;87.31
72585;BME280;60618;40.084;32.908;2023-05-23T02:53:04;88896.56;;;13.28;87.70
72585;BME280;60618;40.084;32.908;2023-05-23T02:55:31;88899.13;;;13.15;87.65
72585;BME280;60618;40.084;32.908;2023-05-23T02:57:58;88904.38;;;13.26;88.08
72585;BME280;60618;40.084;32.908;2023-05-23T03:00:25;88905.78;;;13.33;87.79
72585;BME280;60618;40.084;32.908;2023-05-23T03:02:51;88904.66;;;13.23;87.85
72585;BME280;60618;40.084;32.908;2023-05-23T03:05:18;88903.44;;;13.24;88.04
72585;BME280;60618;40.084;32.908;2023-05-23T03:07:45;88899.91;;;13.34;87.67
72585;BME280;60618;40.084;32.908;2023-05-23T03:10:12;88899.31;;;13.23;87.55
72585;BME280;60618;40.084;32.908;2023-05-23T03:12:39;88908.31;;;13.20;88.09
72585;BME280;60618;40.084;32.908;2023-05-23T03:15:06;88902.66;;;13.29;88.46
72585;BME280;60618;40.084;32.908;2023-05-23T03:17:33;88907.19;;;13.40;88.03
72585;BME280;60618;40.084;32.908;2023-05-23T03:20:00;88912.06;;;13.35;86.98
72585;BME280;60618;40.084;32.908;2023-05-23T03:22:27;88910.75;;;13.23;87.50
72585;BME280;60618;40.084;32.908;2023-05-23T03:24:54;88907.72;;;13.32;87.29
72585;BME280;60618;40.084;32.908;2023-05-23T03:27:21;88908.81;;;13.18;88.43
72585;BME280;60618;40.084;32.908;2023-05-23T03:29:48;88915.88;;;13.16;88.91
72585;BME280;60618;40.084;32.908;2023-05-23T03:32:15;88913.22;;;13.16;89.30
72585;BME280;60618;40.084;32.908;2023-05-23T03:34:42;88913.44;;;13.18;88.89
72585;BME280;60618;40.084;32.908;2023-05-23T03:37:09;88917.75;;;13.26;89.02
72585;BME280;60618;40.084;32.908;2023-05-23T03:39:35;88920.97;;;13.44;88.94
72585;BME280;60618;40.084;32.908;2023-05-23T03:42:05;88926.75;;;13.48;89.25
72585;BME280;60618;40.084;32.908;2023-05-23T03:44:32;88926.38;;;13.62;89.03
72585;BME280;60618;40.084;32.908;2023-05-23T03:46:59;88931.47;;;13.85;89.10
72585;BME280;60618;40.084;32.908;2023-05-23T03:49:26;88924.09;;;14.10;88.92
72585;BME280;60618;40.084;32.908;2023-05-23T03:51:53;88926.03;;;14.28;87.91
72585;BME280;60618;40.084;32.908;2023-05-23T03:54:20;88932.19;;;14.23;86.80
72585;BME280;60618;40.084;32.908;2023-05-23T03:56:46;88937.97;;;13.89;88.07
72585;BME280;60618;40.084;32.908;2023-05-23T03:59:13;88939.59;;;13.55;90.04
72585;BME280;60618;40.084;32.908;2023-05-23T04:01:40;88940.75;;;13.59;91.03
72585;BME280;60618;40.084;32.908;2023-05-23T04:04:07;88934.94;;;13.80;90.86
72585;BME280;60618;40.084;32.908;2023-05-23T04:06:34;88938.94;;;14.11;89.94
72585;BME280;60618;40.084;32.908;2023-05-23T04:09:01;88937.69;;;14.31;88.57
72585;BME280;60618;40.084;32.908;2023-05-23T04:11:28;88941.53;;;14.54;88.00
72585;BME280;60618;40.084;32.908;2023-05-23T04:13:55;88930.38;;;14.82;86.50
72585;BME280;60618;40.084;32.908;2023-05-23T04:16:22;88947.00;;;15.13;86.07
72585;BME280;60618;40.084;32.908;2023-05-23T04:18:49;88947.88;;;15.47;84.83
72585;BME280;60618;40.084;32.908;2023-05-23T04:21:15;88947.50;;;15.83;83.54
72585;BME280;60618;40.084;32.908;2023-05-23T04:23:42;88947.34;;;16.15;81.75
72585;BME280;60618;40.084;32.908;2023-05-23T04:26:09;88950.69;;;16.42;78.85
72585;BME280;60618;40.084;32.908;2023-05-23T04:28:36;88954.19;;;16.63;76.38
72585;BME280;60618;40.084;32.908;2023-05-23T04:31:03;88950.53;;;16.61;77.17
72585;BME280;60618;40.084;32.908;2023-05-23T04:33:30;88959.25;;;15.93;79.27
72585;BME280;60618;40.084;32.908;2023-05-23T04:35:57;88956.38;;;15.78;83.02
72585;BME280;60618;40.084;32.908;2023-05-23T04:38:24;88960.38;;;15.58;81.86
72585;BME280;60618;40.084;32.908;2023-05-23T04:40:52;88954.94;;;15.18;82.17
72585;BME280;60618;40.084;32.908;2023-05-23T04:43:19;88958.44;;;15.26;84.23
72585;BME280;60618;40.084;32.908;2023-05-23T04:45:46;88952.63;;;15.81;82.23
72585;BME280;60618;40.084;32.908;2023-05-23T04:48:13;88957.41;;;15.75;81.29
72585;BME280;60618;40.084;32.908;2023-05-23T04:50:40;88957.41;;;16.01;80.46
72585;BME280;60618;40.084;32.908;2023-05-23T04:53:07;88952.38;;;16.32;79.15
72585;BME280;60618;40.084;32.908;2023-05-23T04:55:34;88949.25;;;16.54;77.88
72585;BME280;60618;40.084;32.908;2023-05-23T04:58:01;88956.75;;;16.69;76.20
72585;BME280;60618;40.084;32.908;2023-05-23T05:00:28;88957.31;;;16.54;76.87
72585;BME280;60618;40.084;32.908;2023-05-23T05:02:55;88963.16;;;16.05;79.05
72585;BME280;60618;40.084;32.908;2023-05-23T05:05:22;88971.22;;;16.05;79.57
72585;BME280;60618;40.084;32.908;2023-05-23T05:07:49;88962.88;;;15.96;79.65
72585;BME280;60618;40.084;32.908;2023-05-23T05:10:16;88968.31;;;16.16;78.24
72585;BME280;60618;40.084;32.908;2023-05-23T05:12:46;88970.19;;;15.95;78.76
72585;BME280;60618;40.084;32.908;2023-05-23T05:15:16;88964.13;;;15.95;79.54
72585;BME280;60618;40.084;32.908;2023-05-23T05:17:43;88964.13;;;15.68;80.60
72585;BME280;60618;40.084;32.908;2023-05-23T05:20:13;88972.13;;;15.55;81.70
72585;BME280;60618;40.084;32.908;2023-05-23T05:22:40;88971.44;;;15.68;80.80
72585;BME280;60618;40.084;32.908;2023-05-23T05:25:08;88974.13;;;15.81;79.78
72585;BME280;60618;40.084;32.908;2023-05-23T05:27:36;88975.38;;;15.67;79.27
72585;BME280;60618;40.084;32.908;2023-05-23T05:30:07;88977.41;;;15.60;80.40
72585;BME280;60618;40.084;32.908;2023-05-23T05:32:34;88979.84;;;15.45;81.21
72585;BME280;60618;40.084;32.908;2023-05-23T05:35:02;88968.13;;;15.16;80.86
72585;BME280;60618;40.084;32.908;2023-05-23T05:37:29;88980.22;;;15.23;81.94
72585;BME280;60618;40.084;32.908;2023-05-23T05:39:56;88977.34;;;15.34;82.23
72585;BME280;60618;40.084;32.908;2023-05-23T05:42:23;88970.53;;;15.20;82.27
72585;BME280;60618;40.084;32.908;2023-05-23T05:44:50;88973.28;;;15.01;83.79
72585;BME280;60618;40.084;32.908;2023-05-23T05:47:16;88978.38;;;14.86;84.55
72585;BME280;60618;40.084;32.908;2023-05-23T05:49:43;88976.56;;;14.75;84.57
72585;BME280;60618;40.084;32.908;2023-05-23T05:52:10;88975.56;;;14.78;85.14
72585;BME280;60618;40.084;32.908;2023-05-23T05:54:37;88980.88;;;14.65;86.07
72585;BME280;60618;40.084;32.908;2023-05-23T05:57:04;88980.13;;;14.45;86.38
72585;BME280;60618;40.084;32.908;2023-05-23T05:59:31;88987.50;;;14.39;87.22
72585;BME280;60618;40.084;32.908;2023-05-23T06:01:58;88993.53;;;14.45;87.19
72585;BME280;60618;40.084;32.908;2023-05-23T06:04:25;88991.09;;;14.47;86.79
72585;BME280;60618;40.084;32.908;2023-05-23T06:06:52;88998.31;;;14.53;86.38
72585;BME280;60618;40.084;32.908;2023-05-23T06:09:19;89003.06;;;14.41;85.74
72585;BME280;60618;40.084;32.908;2023-05-23T06:11:46;89005.31;;;14.37;86.55
72585;BME280;60618;40.084;32.908;2023-05-23T06:14:13;89010.75;;;14.31;87.76
72585;BME280;60618;40.084;32.908;2023-05-23T06:16:40;89008.63;;;14.24;88.95
72585;BME280;60618;40.084;32.908;2023-05-23T06:19:07;89014.47;;;14.04;89.52
72585;BME280;60618;40.084;32.908;2023-05-23T06:21:34;89016.06;;;13.94;89.93
72585;BME280;60618;40.084;32.908;2023-05-23T06:24:01;89017.25;;;13.92;90.66
72585;BME280;60618;40.084;32.908;2023-05-23T06:26:28;89011.69;;;13.90;90.58
72585;BME280;60618;40.084;32.908;2023-05-23T06:28:55;89019.94;;;13.92;90.53
72585;BME280;60618;40.084;32.908;2023-05-23T06:31:21;89023.31;;;13.74;91.48
72585;BME280;60618;40.084;32.908;2023-05-23T06:33:48;89017.13;;;13.60;91.57
72585;BME280;60618;40.084;32.908;2023-05-23T06:36:15;89018.19;;;13.52;92.25
72585;BME280;60618;40.084;32.908;2023-05-23T06:38:42;89028.66;;;13.50;93.13
72585;BME280;60618;40.084;32.908;2023-05-23T06:41:09;89018.94;;;13.47;94.47
72585;BME280;60618;40.084;32.908;2023-05-23T06:43:36;89027.75;;;13.42;94.87
72585;BME280;60618;40.084;32.908;2023-05-23T06:46:04;89022.72;;;13.32;96.13
72585;BME280;60618;40.084;32.908;2023-05-23T06:48:31;89026.88;;;13.28;96.05
72585;BME280;60618;40.084;32.908;2023-05-23T06:50:58;89031.88;;;13.43;96.79
72585;BME280;60618;40.084;32.908;2023-05-23T06:53:25;89041.34;;;13.44;96.39
72585;BME280;60618;40.084;32.908;2023-05-23T06:55:52;89031.91;;;13.37;96.04
72585;BME280;60618;40.084;32.908;2023-05-23T06:58:21;89031.06;;;13.53;95.88
72585;BME280;60618;40.084;32.908;2023-05-23T07:00:48;89024.94;;;13.58;95.22
72585;BME280;60618;40.084;32.908;2023-05-23T07:03:16;89021.34;;;13.75;94.60
72585;BME280;60618;40.084;32.908;2023-05-23T07:05:44;89023.63;;;13.89;94.47
72585;BME280;60618;40.084;32.908;2023-05-23T07:08:11;89024.13;;;13.88;92.95
72585;BME280;60618;40.084;32.908;2023-05-23T07:10:38;89024.22;;;14.01;93.05
72585;BME280;60618;40.084;32.908;2023-05-23T07:13:05;89022.69;;;14.30;92.50
72585;BME280;60618;40.084;32.908;2023-05-23T07:15:32;89028.88;;;14.63;91.49
72585;BME280;60618;40.084;32.908;2023-05-23T07:17:59;89026.06;;;14.74;89.25
72585;BME280;60618;40.084;32.908;2023-05-23T07:20:26;89020.16;;;14.94;88.44
72585;BME280;60618;40.084;32.908;2023-05-23T07:22:53;89030.41;;;15.28;88.11
72585;BME280;60618;40.084;32.908;2023-05-23T07:25:20;89021.47;;;15.52;87.32
72585;BME280;60618;40.084;32.908;2023-05-23T07:27:47;89031.97;;;15.82;86.29
72585;BME280;60618;40.084;32.908;2023-05-23T07:30:14;89024.63;;;15.96;85.71
72585;BME280;60618;40.084;32.908;2023-05-23T07:32:41;89029.59;;;15.92;84.19
72585;BME280;60618;40.084;32.908;2023-05-23T07:35:08;89026.22;;;15.59;85.38
72585;BME280;60618;40.084;32.908;2023-05-23T07:37:35;89016.28;;;15.41;86.81
72585;BME280;60618;40.084;32.908;2023-05-23T07:40:04;89027.06;;;15.22;87.99
72585;BME280;60618;40.084;32.908;2023-05-23T07:42:31;89023.13;;;15.55;89.78
72585;BME280;60618;40.084;32.908;2023-05-23T07:44:58;89031.94;;;15.37;87.87
72585;BME280;60618;40.084;32.908;2023-05-23T07:47:25;89028.91;;;15.59;89.69
72585;BME280;60618;40.084;32.908;2023-05-23T07:49:53;89036.19;;;15.77;87.07
72585;BME280;60618;40.084;32.908;2023-05-23T07:52:20;89036.50;;;15.87;84.30
72585;BME280;60618;40.084;32.908;2023-05-23T07:54:47;89031.75;;;15.67;85.65
72585;BME280;60618;40.084;32.908;2023-05-23T07:57:14;89036.25;;;15.58;87.55
72585;BME280;60618;40.084;32.908;2023-05-23T07:59:41;89034.38;;;15.53;86.90
72585;BME280;60618;40.084;32.908;2023-05-23T08:02:08;89040.22;;;15.71;86.89
72585;BME280;60618;40.084;32.908;2023-05-23T08:04:35;89037.84;;;15.80;85.96
72585;BME280;60618;40.084;32.908;2023-05-23T08:07:02;89021.53;;;16.05;85.31
72585;BME280;60618;40.084;32.908;2023-05-23T08:09:31;89034.88;;;16.10;84.08
72585;BME280;60618;40.084;32.908;2023-05-23T08:11:58;89027.66;;;15.92;79.46
72585;BME280;60618;40.084;32.908;2023-05-23T08:14:26;89023.41;;;15.97;79.78
72585;BME280;60618;40.084;32.908;2023-05-23T08:17:08;89029.41;;;16.03;76.15
72585;BME280;60618;40.084;32.908;2023-05-23T08:19:35;89028.25;;;15.98;73.69
72585;BME280;60618;40.084;32.908;2023-05-23T08:22:02;89020.22;;;16.11;76.08
72585;BME280;60618;40.084;32.908;2023-05-23T08:24:29;89018.16;;;16.17;75.29
72585;BME280;60618;40.084;32.908;2023-05-23T08:26:56;89020.31;;;16.19;76.76
72585;BME280;60618;40.084;32.908;2023-05-23T08:29:23;89021.88;;;16.01;72.93
72585;BME280;60618;40.084;32.908;2023-05-23T08:31:50;89018.66;;;16.03;74.50
72585;BME280;60618;40.084;32.908;2023-05-23T08:34:17;89016.06;;;16.10;73.99
72585;BME280;60618;40.084;32.908;2023-05-23T08:36:44;89012.03;;;16.17;73.49
72585;BME280;60618;40.084;32.908;2023-05-23T08:39:11;89020.81;;;16.31;76.27
72585;BME280;60618;40.084;32.908;2023-05-23T08:41:39;89019.56;;;16.45;74.26
72585;BME280;60618;40.084;32.908;2023-05-23T08:44:06;89017.06;;;16.47;74.86
72585;BME280;60618;40.084;32.908;2023-05-23T08:46:39;89014.34;;;16.60;72.43
72585;BME280;60618;40.084;32.908;2023-05-23T08:49:06;89016.84;;;16.71;72.25
72585;BME280;60618;40.084;32.908;2023-05-23T08:51:34;89013.94;;;16.69;69.68
72585;BME280;60618;40.084;32.908;2023-05-23T08:54:04;89019.75;;;16.73;69.71
72585;BME280;60618;40.084;32.908;2023-05-23T08:56:31;89025.78;;;16.87;71.99
72585;BME280;60618;40.084;32.908;2023-05-23T08:58:58;89025.25;;;16.89;69.87
72585;BME280;60618;40.084;32.908;2023-05-23T09:01:26;89025.06;;;16.87;67.85
72585;BME280;60618;40.084;32.908;2023-05-23T09:03:53;89021.66;;;17.20;68.32
72585;BME280;60618;40.084;32.908;2023-05-23T09:06:21;89024.06;;;17.31;66.60
72585;BME280;60618;40.084;32.908;2023-05-23T09:08:48;89029.88;;;17.36;67.05
72585;BME280;60618;40.084;32.908;2023-05-23T09:11:18;89030.97;;;17.19;68.14
72585;BME280;60618;40.084;32.908;2023-05-23T09:13:45;89032.22;;;16.84;66.31
72585;BME280;60618;40.084;32.908;2023-05-23T09:16:16;89035.69;;;16.71;69.80
72585;BME280;60618;40.084;32.908;2023-05-23T09:18:44;89036.25;;;16.91;70.51
72585;BME280;60618;40.084;32.908;2023-05-23T09:21:13;89033.25;;;17.15;68.98
72585;BME280;60618;40.084;32.908;2023-05-23T09:23:40;89034.84;;;17.31;68.28
72585;BME280;60618;40.084;32.908;2023-05-23T09:26:09;89026.56;;;17.29;68.32
72585;BME280;60618;40.084;32.908;2023-05-23T09:28:37;89032.03;;;17.58;68.62
72585;BME280;60618;40.084;32.908;2023-05-23T09:31:06;89019.22;;;17.93;66.62
72585;BME280;60618;40.084;32.908;2023-05-23T09:33:43;89020.53;;;17.78;65.17
72585;BME280;60618;40.084;32.908;2023-05-23T09:36:11;89022.75;;;17.87;64.74
72585;BME280;60618;40.084;32.908;2023-05-23T09:38:39;89032.50;;;17.91;64.93
72585;BME280;60618;40.084;32.908;2023-05-23T09:41:07;89031.06;;;17.90;65.40
72585;BME280;60618;40.084;32.908;2023-05-23T09:43:37;89030.34;;;17.89;65.36
72585;BME280;60618;40.084;32.908;2023-05-23T09:46:09;89024.59;;;17.93;65.61
72585;BME280;60618;40.084;32.908;2023-05-23T09:48:36;89028.50;;;17.84;64.87
72585;BME280;60618;40.084;32.908;2023-05-23T09:51:05;89026.03;;;17.52;65.76
72585;BME280;60618;40.084;32.908;2023-05-23T09:53:33;89022.13;;;17.53;66.56
72585;BME280;60618;40.084;32.908;2023-05-23T09:56:01;89022.00;;;17.38;67.62
72585;BME280;60618;40.084;32.908;2023-05-23T09:58:29;89026.72;;;17.45;68.06
72585;BME280;60618;40.084;32.908;2023-05-23T10:00:56;89012.19;;;17.69;67.67
72585;BME280;60618;40.084;32.908;2023-05-23T10:03:43;89014.97;;;17.76;67.33
72585;BME280;60618;40.084;32.908;2023-05-23T10:06:24;89020.97;;;17.69;66.60
72585;BME280;60618;40.084;32.908;2023-05-23T10:09:03;89031.34;;;17.23;67.19
72585;BME280;60618;40.084;32.908;2023-05-23T10:14:03;89036.03;;;15.56;74.66
72585;BME280;60618;40.084;32.908;2023-05-23T10:19:09;89044.91;;;15.19;76.27
72585;BME280;60618;40.084;32.908;2023-05-23T10:21:42;89054.59;;;14.28;78.40
72585;BME280;60618;40.084;32.908;2023-05-23T10:24:13;89038.75;;;14.11;81.96
72585;BME280;60618;40.084;32.908;2023-05-23T10:26:42;89052.59;;;14.34;82.29
72585;BME280;60618;40.084;32.908;2023-05-23T10:29:10;89055.06;;;14.32;84.14
72585;BME280;60618;40.084;32.908;2023-05-23T10:31:37;89053.63;;;13.82;85.41
72585;BME280;60618;40.084;32.908;2023-05-23T10:34:17;89056.88;;;13.51;87.68
72585;BME280;60618;40.084;32.908;2023-05-23T10:39:58;89063.88;;;13.54;91.07
72585;BME280;60618;40.084;32.908;2023-05-23T10:42:40;89075.19;;;13.41;91.54
72585;BME280;60618;40.084;32.908;2023-05-23T10:45:21;89081.34;;;13.30;91.98
72585;BME280;60618;40.084;32.908;2023-05-23T10:47:52;89082.31;;;13.27;92.30
72585;BME280;60618;40.084;32.908;2023-05-23T10:50:33;89078.44;;;13.28;92.27
72585;BME280;60618;40.084;32.908;2023-05-23T10:53:03;89080.16;;;13.26;90.88
72585;BME280;60618;40.084;32.908;2023-05-23T10:55:32;89081.66;;;13.16;91.53
72585;BME280;60618;40.084;32.908;2023-05-23T10:58:17;89085.91;;;13.00;93.20
72585;BME280;60618;40.084;32.908;2023-05-23T11:00:52;89084.53;;;12.82;92.50
72585;BME280;60618;40.084;32.908;2023-05-23T11:03:30;89089.47;;;12.72;92.23
72585;BME280;60618;40.084;32.908;2023-05-23T11:05:57;89088.25;;;12.73;93.20
72585;BME280;60618;40.084;32.908;2023-05-23T11:08:24;89099.69;;;12.68;93.14
72585;BME280;60618;40.084;32.908;2023-05-23T11:11:04;89103.59;;;12.67;93.22
72585;BME280;60618;40.084;32.908;2023-05-23T11:13:57;89097.69;;;12.74;94.72
72585;BME280;60618;40.084;32.908;2023-05-23T11:16:33;89107.41;;;12.77;94.61
72585;BME280;60618;40.084;32.908;2023-05-23T11:27:39;89102.44;;;13.40;93.39
72585;BME280;60618;40.084;32.908;2023-05-23T11:30:15;89095.47;;;13.55;92.76
72585;BME280;60618;40.084;32.908;2023-05-23T11:32:50;89106.03;;;13.72;92.87
72585;BME280;60618;40.084;32.908;2023-05-23T11:35:18;89104.09;;;13.73;92.18
72585;BME280;60618;40.084;32.908;2023-05-23T11:37:49;89097.66;;;13.87;91.83
72585;BME280;60618;40.084;32.908;2023-05-23T11:40:33;89104.13;;;13.97;90.27
72585;BME280;60618;40.084;32.908;2023-05-23T11:43:14;89104.84;;;13.98;88.83
72585;BME280;60618;40.084;32.908;2023-05-23T11:45:42;89111.72;;;13.93;88.96
72585;BME280;60618;40.084;32.908;2023-05-23T11:48:15;89107.13;;;13.88;87.76
72585;BME280;60618;40.084;32.908;2023-05-23T11:50:49;89108.41;;;14.06;89.28
72585;BME280;60618;40.084;32.908;2023-05-23T11:53:19;89103.50;;;14.10;86.21
72585;BME280;60618;40.084;32.908;2023-05-23T11:55:53;89114.00;;;14.32;85.10
72585;BME280;60618;40.084;32.908;2023-05-23T11:58:24;89124.25;;;14.28;84.37
72585;BME280;60618;40.084;32.908;2023-05-23T12:01:00;89124.59;;;14.19;87.35
72585;BME280;60618;40.084;32.908;2023-05-23T12:03:28;89126.84;;;14.15;88.08
72585;BME280;60618;40.084;32.908;2023-05-23T12:05:56;89134.44;;;14.11;87.66
72585;BME280;60618;40.084;32.908;2023-05-23T12:08:23;89123.09;;;13.99;88.18
72585;BME280;60618;40.084;32.908;2023-05-23T12:10:56;89126.78;;;13.96;89.16
72585;BME280;60618;40.084;32.908;2023-05-23T12:13:29;89121.59;;;14.04;88.57
72585;BME280;60618;40.084;32.908;2023-05-23T12:15:59;89117.56;;;14.16;88.86
72585;BME280;60618;40.084;32.908;2023-05-23T12:18:31;89114.22;;;14.10;88.48
72585;BME280;60618;40.084;32.908;2023-05-23T12:21:02;89119.13;;;14.06;88.97
72585;BME280;60618;40.084;32.908;2023-05-23T12:23:30;89123.59;;;13.98;90.17
72585;BME280;60618;40.084;32.908;2023-05-23T12:26:04;89125.25;;;13.76;90.66
72585;BME280;60618;40.084;32.908;2023-05-23T12:28:39;89120.66;;;13.71;91.43
72585;BME280;60618;40.084;32.908;2023-05-23T12:31:26;89119.97;;;13.65;90.74
72585;BME280;60618;40.084;32.908;2023-05-23T12:33:53;89120.88;;;13.73;91.70
72585;BME280;60618;40.084;32.908;2023-05-23T12:36:23;89127.69;;;13.74;91.15
72585;BME280;60618;40.084;32.908;2023-05-23T12:38:50;89123.13;;;13.69;93.07
72585;BME280;60618;40.084;32.908;2023-05-23T12:41:19;89129.59;;;13.49;92.41
72585;BME280;60618;40.084;32.908;2023-05-23T12:43:54;89134.97;;;13.44;94.51
72585;BME280;60618;40.084;32.908;2023-05-23T12:46:23;89125.50;;;13.43;93.68
72585;BME280;60618;40.084;32.908;2023-05-23T12:48:50;89120.16;;;13.43;92.47
72585;BME280;60618;40.084;32.908;2023-05-23T12:51:18;89126.97;;;13.44;92.97
72585;BME280;60618;40.084;32.908;2023-05-23T12:53:45;89121.28;;;13.53;93.34
72585;BME280;60618;40.084;32.908;2023-05-23T12:56:13;89124.19;;;13.55;93.78
72585;BME280;60618;40.084;32.908;2023-05-23T12:58:40;89117.84;;;13.58;94.29
72585;BME280;60618;40.084;32.908;2023-05-23T13:01:07;89126.28;;;13.68;95.03
72585;BME280;60618;40.084;32.908;2023-05-23T13:03:34;89122.09;;;13.72;95.22
72585;BME280;60618;40.084;32.908;2023-05-23T13:06:02;89125.97;;;13.77;95.11
72585;BME280;60618;40.084;32.908;2023-05-23T13:08:30;89122.91;;;13.91;95.72
72585;BME280;60618;40.084;32.908;2023-05-23T13:10:57;89119.41;;;14.02;95.08
72585;BME280;60618;40.084;32.908;2023-05-23T13:13:27;89120.75;;;14.14;93.97
72585;BME280;60618;40.084;32.908;2023-05-23T13:15:55;89113.28;;;14.32;93.59
72585;BME280;60618;40.084;32.908;2023-05-23T13:18:22;89113.19;;;14.37;91.57